Time;durP1;ratioP1;P1;durP2;ratioP2;P2;SDS_P1;SDS_P2;PMS_P1;PMS_P2;Temp;Humidity;BMP_temperature;BMP_pressure;BME280_temperature;BME280_humidity;BME280_pressure;Samples;Min_cycle;Max_cycle;Signal;HPM_P1;HPM_P2
2022/01/31 00:00:30;;;;;;;7.13;3.40;;;;;;;6.99;53.63;94482.06;5035816;28;20222;-71
2022/01/31 00:02:57;;;;;;;14.23;4.40;;;;;;;6.89;53.51;94460.81;5018106;28;20295;-74
2022/01/31 00:05:24;;;;;;;15.57;3.80;;;;;;;7.01;53.51;94480.19;5016150;28;20192;-75
2022/01/31 00:07:50;;;;;;;11.63;3.47;;;;;;;7.02;53.36;94481.00;5021915;28;20195;-78
2022/01/31 00:10:27;;;;;;;10.57;3.40;;;;;;;7.03;53.23;94477.53;5032831;28;20192;-76
2022/01/31 00:12:59;;;;;;;10.73;3.10;;;;;;;7.01;53.37;94477.66;5032911;28;20195;-73
2022/01/31 00:15:26;;;;;;;18.90;4.53;;;;;;;7.04;53.18;94486.78;5032635;28;20187;-74
2022/01/31 00:17:52;;;;;;;7.63;3.83;;;;;;;7.03;53.06;94488.50;5032829;28;20199;-74
2022/01/31 00:20:19;;;;;;;14.90;4.57;;;;;;;7.04;53.15;94492.69;5032635;28;20207;-75
2022/01/31 00:22:46;;;;;;;20.30;4.27;;;;;;;7.02;52.78;94489.44;5033226;28;20199;-78
2022/01/31 00:25:13;;;;;;;10.90;3.37;;;;;;;7.07;52.99;94494.16;5031861;28;20222;-75
2022/01/31 00:27:41;;;;;;;21.60;4.47;;;;;;;7.08;53.01;94497.50;5032196;28;20215;-76
2022/01/31 00:30:09;;;;;;;22.17;3.70;;;;;;;7.08;52.92;94492.41;5032085;28;20191;-76
2022/01/31 00:32:36;;;;;;;16.00;6.27;;;;;;;7.08;52.89;94495.78;5032220;28;20187;-76
2022/01/31 00:35:04;;;;;;;10.70;5.70;;;;;;;7.07;52.92;94496.69;5032657;28;20597;-77
2022/01/31 00:37:30;;;;;;;14.70;5.50;;;;;;;7.09;52.98;94514.38;5032267;28;20667;-76
2022/01/31 00:39:57;;;;;;;9.67;4.70;;;;;;;7.10;52.87;94503.28;5036132;28;20183;-76
2022/01/31 00:42:26;;;;;;;16.77;4.83;;;;;;;7.13;52.86;94500.50;5038123;28;20230;-78
2022/01/31 00:44:57;;;;;;;16.07;4.50;;;;;;;7.12;52.80;94511.59;5036927;28;20192;-79
2022/01/31 00:47:25;;;;;;;16.37;3.83;;;;;;;7.08;52.78;94500.88;5032740;28;20320;-77
2022/01/31 00:49:55;;;;;;;11.10;5.10;;;;;;;6.69;52.59;94442.09;5032901;28;20184;-77
2022/01/31 00:52:22;;;;;;;10.10;5.17;;;;;;;7.12;52.78;94514.94;5031920;28;20184;-75
2022/01/31 00:54:48;;;;;;;15.37;5.20;;;;;;;7.18;52.53;94518.75;5030650;28;20663;-74
2022/01/31 00:57:15;;;;;;;12.93;4.63;;;;;;;7.18;52.64;94518.75;5031294;28;20191;-76
2022/01/31 00:59:42;;;;;;;15.07;5.60;;;;;;;7.18;52.55;94519.56;5032039;28;20202;-76
2022/01/31 01:02:10;;;;;;;12.07;4.50;;;;;;;7.08;52.58;94503.41;5031283;28;20224;-73
2022/01/31 01:04:37;;;;;;;14.67;5.17;;;;;;;7.20;52.62;94515.13;5032516;28;20238;-76
2022/01/31 01:07:04;;;;;;;7.47;4.00;;;;;;;7.22;52.52;94520.94;5032144;28;20616;-72
2022/01/31 01:09:31;;;;;;;10.47;4.60;;;;;;;7.23;52.42;94522.53;5031647;28;20192;-76
2022/01/31 01:11:58;;;;;;;12.63;5.97;;;;;;;7.24;52.59;94518.25;5031873;28;20736;-73
2022/01/31 01:14:24;;;;;;;12.83;4.50;;;;;;;7.24;52.42;94523.34;5031217;28;20199;-76
2022/01/31 01:16:51;;;;;;;12.07;5.73;;;;;;;7.25;52.30;94510.50;5031482;28;20188;-75
2022/01/31 01:19:19;;;;;;;12.27;5.10;;;;;;;7.27;52.22;94523.09;5031267;28;20575;-73
2022/01/31 01:21:46;;;;;;;22.20;6.13;;;;;;;7.20;52.15;94504.16;5031032;28;20230;-78
2022/01/31 01:24:14;;;;;;;9.13;4.77;;;;;;;7.20;52.01;94504.97;5031119;28;20206;-72
2022/01/31 01:26:41;;;;;;;10.93;5.60;;;;;;;7.31;52.05;94513.50;5031131;28;20228;-76
2022/01/31 01:29:08;;;;;;;15.27;5.30;;;;;;;7.32;51.99;94510.00;5030913;28;20733;-72
2022/01/31 01:31:35;;;;;;;17.77;6.33;;;;;;;7.31;52.00;94511.75;5031162;28;20192;-78
2022/01/31 01:34:02;;;;;;;18.43;6.17;;;;;;;7.32;51.83;94500.66;5030807;28;20543;-77
2022/01/31 01:36:31;;;;;;;18.77;5.37;;;;;;;7.33;51.92;94501.44;5031406;28;20192;-72
2022/01/31 01:38:58;;;;;;;10.13;5.13;;;;;;;7.33;51.94;94502.25;5031008;28;20242;-79
2022/01/31 01:41:25;;;;;;;14.60;5.53;;;;;;;7.34;51.81;94515.78;5030928;28;20248;-79
2022/01/31 01:43:52;;;;;;;22.20;4.93;;;;;;;7.27;52.01;94488.28;5030651;28;20188;-77
2022/01/31 01:46:18;;;;;;;15.93;5.87;;;;;;;7.34;51.77;94495.44;5030626;28;20187;-73
2022/01/31 01:48:45;;;;;;;16.07;5.00;;;;;;;7.35;51.85;94497.06;5030957;28;20218;-77
2022/01/31 01:51:13;;;;;;;13.33;4.67;;;;;;;7.31;51.83;94495.69;5030675;28;20276;-79
2022/01/31 01:53:41;;;;;;;18.23;5.70;;;;;;;7.18;51.85;94472.97;5030177;28;20191;-77
2022/01/31 01:56:08;;;;;;;11.43;5.07;;;;;;;7.35;51.78;94502.94;5030492;28;20195;-78
2022/01/31 01:58:40;;;;;;;12.03;4.97;;;;;;;7.36;51.68;94506.31;5030339;28;20203;-78
2022/01/31 02:01:08;;;;;;;16.43;4.90;;;;;;;7.35;51.67;94509.78;5030429;28;20692;-80
2022/01/31 02:03:39;;;;;;;10.23;5.43;;;;;;;7.35;51.66;94507.25;5030066;28;20224;-73
2022/01/31 02:06:08;;;;;;;16.63;5.17;;;;;;;7.18;51.68;94476.31;5030420;28;20195;-78
2022/01/31 02:08:40;;;;;;;8.50;4.33;;;;;;;7.34;51.59;94506.44;5030156;28;20198;-77
2022/01/31 02:11:09;;;;;;;9.00;4.00;;;;;;;7.31;51.65;94498.22;5030446;28;20262;-77
2022/01/31 02:13:37;;;;;;;6.43;4.43;;;;;;;7.35;51.41;94502.94;5030192;28;20275;-78
2022/01/31 02:16:05;;;;;;;11.73;4.97;;;;;;;7.34;51.36;94498.81;5030251;28;20695;-77
2022/01/31 02:18:32;;;;;;;8.97;3.80;;;;;;;7.35;51.54;94500.41;5030520;28;20207;-78
2022/01/31 02:21:01;;;;;;;5.73;4.17;;;;;;;7.20;51.45;94484.63;5029889;28;20195;-78
2022/01/31 02:23:28;;;;;;;15.00;3.63;;;;;;;7.36;51.19;94503.75;5030238;28;20567;-78
2022/01/31 02:25:58;;;;;;;10.17;3.57;;;;;;;7.34;51.21;94503.88;5030075;28;20249;-78
2022/01/31 02:28:27;;;;;;;9.60;3.40;;;;;;;7.34;51.20;94501.34;5030038;28;20656;-77
2022/01/31 02:30:54;;;;;;;12.27;3.97;;;;;;;7.34;51.34;94498.81;5029730;28;20698;-79
2022/01/31 02:33:21;;;;;;;15.90;3.63;;;;;;;7.34;50.99;94500.50;5030169;28;20188;-76
2022/01/31 02:35:49;;;;;;;15.47;4.40;;;;;;;7.33;51.02;94504.78;5030241;28;20198;-78
2022/01/31 02:38:17;;;;;;;15.37;3.57;;;;;;;7.32;51.04;94508.28;5030241;28;20199;-79
2022/01/31 02:40:45;;;;;;;9.67;3.80;;;;;;;7.32;51.00;94505.72;5029720;28;20191;-73
2022/01/31 02:43:12;;;;;;;7.73;3.30;;;;;;;7.12;51.00;94489.50;5029818;28;20219;-78
2022/01/31 02:45:39;;;;;;;6.63;3.47;;;;;;;7.18;50.88;94499.22;5034381;28;20191;-77
2022/01/31 02:48:06;;;;;;;9.50;2.97;;;;;;;7.29;50.77;94513.59;5035858;28;20202;-77
2022/01/31 02:50:34;;;;;;;10.27;3.40;;;;;;;6.80;50.51;94433.59;5030510;28;20639;-79
2022/01/31 02:53:11;;;;;;;11.00;3.20;;;;;;;7.26;50.65;94517.22;5030383;28;20199;-76
2022/01/31 02:55:41;;;;;;;5.53;3.33;;;;;;;7.26;50.58;94516.41;5030100;28;20201;-79
2022/01/31 02:58:08;;;;;;;7.17;2.67;;;;;;;7.25;50.61;94515.59;5029863;28;20188;-74
2022/01/31 03:00:35;;;;;;;5.70;2.70;;;;;;;7.25;50.68;94514.78;5029538;28;20334;-76
2022/01/31 03:03:02;;;;;;;9.93;3.33;;;;;;;7.26;50.46;94516.41;5029483;28;20234;-77
2022/01/31 03:05:29;;;;;;;11.37;3.20;;;;;;;7.12;50.44;94499.69;5029685;28;20194;-77
2022/01/31 03:07:56;;;;;;;8.20;3.27;;;;;;;7.20;50.44;94504.97;5030721;28;20180;-77
2022/01/31 03:10:23;;;;;;;6.30;3.03;;;;;;;7.25;50.54;94517.31;5030136;28;20665;-77
2022/01/31 03:12:51;;;;;;;14.60;3.83;;;;;;;6.77;50.57;94442.25;5029741;28;20192;-78
2022/01/31 03:15:18;;;;;;;6.93;3.33;;;;;;;7.20;50.50;94520.22;5029333;28;20195;-78
2022/01/31 03:17:48;;;;;;;8.87;3.13;;;;;;;7.23;50.55;94530.16;5029335;28;20196;-79
2022/01/31 03:20:16;;;;;;;9.73;2.90;;;;;;;7.18;50.55;94516.19;5030086;28;20279;-78
2022/01/31 03:22:43;;;;;;;7.40;2.80;;;;;;;7.21;50.92;94521.03;5029482;28;20224;-74
2022/01/31 03:25:10;;;;;;;9.93;2.87;;;;;;;7.22;50.85;94513.28;5029806;28;20207;-75
2022/01/31 03:27:37;;;;;;;9.10;3.20;;;;;;;7.22;50.80;94517.56;5029452;28;20206;-78
2022/01/31 03:30:06;;;;;;;4.50;3.07;;;;;;;7.22;50.83;94508.22;5029482;28;20730;-76
2022/01/31 03:32:33;;;;;;;9.10;3.27;;;;;;;7.23;50.80;94507.28;5029388;28;20196;-76
2022/01/31 03:35:01;;;;;;;8.20;3.03;;;;;;;7.14;50.48;94489.41;5029351;28;20195;-78
2022/01/31 03:37:28;;;;;;;6.23;3.20;;;;;;;7.04;50.83;94474.06;5009984;28;20188;-80
2022/01/31 03:39:55;;;;;;;5.90;3.03;;;;;;;7.06;50.56;94479.03;5009534;28;20188;-78
2022/01/31 03:42:22;;;;;;;12.37;4.07;;;;;;;7.15;50.55;94499.44;5009673;28;20228;-76
2022/01/31 03:44:49;;;;;;;12.30;3.10;;;;;;;7.04;50.35;94491.88;5020239;28;20188;-79
2022/01/31 03:47:20;;;;;;;6.23;3.00;;;;;;;7.12;50.50;94502.22;5029451;28;20210;-77
2022/01/31 03:49:47;;;;;;;7.70;2.90;;;;;;;7.12;50.47;94507.31;5029282;28;20203;-77
2022/01/31 03:52:14;;;;;;;10.13;3.00;;;;;;;7.12;50.52;94514.13;5029709;28;20218;-77
2022/01/31 03:54:41;;;;;;;8.03;3.60;;;;;;;7.12;50.49;94514.94;5029336;28;20199;-78
2022/01/31 03:57:07;;;;;;;7.90;3.63;;;;;;;7.10;50.52;94506.63;5030786;28;20203;-76
2022/01/31 03:59:34;;;;;;;9.80;3.20;;;;;;;7.12;50.52;94502.22;5030224;28;20191;-79
2022/01/31 04:02:03;;;;;;;5.93;3.00;;;;;;;6.94;50.67;94486.69;5033456;28;20215;-76
2022/01/31 04:04:32;;;;;;;9.47;3.37;;;;;;;7.11;50.59;94505.69;5034084;28;20337;-80
2022/01/31 04:06:58;;;;;;;9.97;2.97;;;;;;;7.11;50.63;94500.59;5034013;28;20195;-76
2022/01/31 04:09:26;;;;;;;8.10;3.17;;;;;;;7.11;50.59;94504.88;5032495;28;20544;-75
2022/01/31 04:11:53;;;;;;;5.80;3.23;;;;;;;7.09;50.42;94507.56;5031402;28;20195;-79
2022/01/31 04:14:20;;;;;;;4.37;3.00;;;;;;;7.04;50.40;94504.59;5032605;28;20188;-76
2022/01/31 04:16:47;;;;;;;15.13;3.50;;;;;;;7.00;50.47;94500.66;5031916;28;20227;-77
2022/01/31 04:19:13;;;;;;;6.00;2.80;;;;;;;7.10;50.45;94518.53;5032871;28;20570;-75
2022/01/31 04:21:42;;;;;;;11.57;2.70;;;;;;;7.10;50.52;94521.09;5032451;28;20183;-75
2022/01/31 04:24:09;;;;;;;4.90;2.70;;;;;;;7.02;50.31;94508.97;5032646;28;20667;-77
2022/01/31 04:26:44;;;;;;;11.63;3.53;;;;;;;7.07;50.71;94518.78;5032115;28;20199;-78
2022/01/31 04:29:17;;;;;;;7.27;3.83;;;;;;;7.08;50.43;94517.84;5032412;28;20227;-76
2022/01/31 04:31:49;;;;;;;4.23;2.97;;;;;;;7.06;50.45;94512.88;5031945;28;20298;-74
2022/01/31 04:34:15;;;;;;;6.40;3.33;;;;;;;7.06;50.48;94519.72;5032772;28;20198;-80
2022/01/31 04:36:44;;;;;;;6.50;3.17;;;;;;;6.26;50.73;94397.16;5032714;28;20211;-77
2022/01/31 04:39:16;;;;;;;4.43;2.90;;;;;;;7.01;50.66;94509.91;5032157;28;20305;-77
2022/01/31 04:41:43;;;;;;;9.00;3.00;;;;;;;6.97;50.52;94505.97;5032353;28;20191;-78
2022/01/31 04:44:10;;;;;;;9.73;3.83;;;;;;;6.93;50.57;94514.78;5040264;28;20210;-75
2022/01/31 04:46:37;;;;;;;8.00;3.30;;;;;;;6.89;50.73;94515.94;5039549;28;20615;-79
2022/01/31 04:49:04;;;;;;;7.10;3.10;;;;;;;6.85;50.85;94501.84;5032168;28;20194;-76
2022/01/31 04:51:31;;;;;;;6.70;3.53;;;;;;;6.77;51.14;94490.53;5031554;28;20207;-73
2022/01/31 04:53:59;;;;;;;12.40;3.50;;;;;;;6.75;51.13;94494.94;5032377;28;20575;-76
2022/01/31 04:56:26;;;;;;;15.17;3.83;;;;;;;6.69;51.17;94495.44;5034809;28;20196;-77
2022/01/31 04:58:53;;;;;;;8.23;3.77;;;;;;;6.64;51.29;94491.63;5032849;28;20188;-76
2022/01/31 05:01:19;;;;;;;6.67;3.50;;;;;;;6.47;51.43;94464.97;5034260;28;20196;-79
2022/01/31 05:03:47;;;;;;;6.77;3.60;;;;;;;6.57;51.35;94495.59;5034470;28;20224;-73
2022/01/31 05:06:17;;;;;;;10.43;3.20;;;;;;;6.51;51.66;94491.75;5033325;28;20739;-78
2022/01/31 05:08:44;;;;;;;6.40;3.27;;;;;;;6.35;51.51;94473.53;5034349;28;20200;-75
2022/01/31 05:11:13;;;;;;;10.10;3.53;;;;;;;6.46;51.61;94484.50;5034656;28;20203;-77
2022/01/31 05:13:39;;;;;;;8.53;3.33;;;;;;;6.42;51.73;94495.00;5034750;28;20183;-76
2022/01/31 05:16:06;;;;;;;7.53;3.03;;;;;;;6.40;51.89;94489.25;5031651;28;20257;-73
2022/01/31 05:18:33;;;;;;;4.13;3.20;;;;;;;6.20;51.64;94470.44;5031171;28;20196;-74
2022/01/31 05:21:00;;;;;;;5.73;2.73;;;;;;;6.33;51.73;94493.97;5031417;28;20192;-74
2022/01/31 05:23:27;;;;;;;5.60;3.03;;;;;;;6.34;51.90;94504.94;5031335;28;20722;-80
2022/01/31 05:25:54;;;;;;;4.43;3.00;;;;;;;6.33;51.83;94498.25;5031345;28;20192;-79
2022/01/31 05:28:22;;;;;;;4.80;3.10;;;;;;;6.27;52.22;94502.88;5031133;28;20219;-75
2022/01/31 05:30:49;;;;;;;5.37;3.00;;;;;;;6.25;52.04;94497.09;5032022;28;20188;-74
2022/01/31 05:33:15;;;;;;;9.50;2.93;;;;;;;6.26;51.94;94497.91;5035177;28;20179;-76
2022/01/31 05:35:44;;;;;;;6.90;3.10;;;;;;;6.24;52.02;94504.84;5031117;28;20204;-74
2022/01/31 05:38:11;;;;;;;6.67;2.93;;;;;;;6.21;52.13;94508.41;5031468;28;20278;-73
2022/01/31 05:40:38;;;;;;;4.87;3.50;;;;;;;6.20;52.08;94506.78;5031367;28;20184;-76
2022/01/31 05:43:05;;;;;;;3.30;3.00;;;;;;;6.19;52.12;94502.66;5030684;28;20207;-76
2022/01/31 05:45:33;;;;;;;6.47;2.87;;;;;;;6.19;52.32;94504.38;5027566;28;20206;-75
2022/01/31 05:48:00;;;;;;;5.67;3.30;;;;;;;6.18;52.27;94515.47;5029005;28;20187;-74
2022/01/31 05:50:27;;;;;;;10.50;2.97;;;;;;;6.15;52.12;94498.72;5028927;28;20651;-76
2022/01/31 05:52:53;;;;;;;6.37;3.20;;;;;;;6.15;52.21;94493.66;5029931;28;20234;-74
2022/01/31 05:55:20;;;;;;;6.93;3.33;;;;;;;6.22;52.29;94515.13;5029173;28;20199;-75
2022/01/31 05:57:47;;;;;;;9.20;3.20;;;;;;;6.02;52.14;94470.91;5028950;28;20207;-78
2022/01/31 06:00:15;;;;;;;7.27;3.23;;;;;;;6.03;52.46;94467.44;5029005;28;20199;-73
2022/01/31 06:02:43;;;;;;;10.20;3.30;;;;;;;6.27;52.04;94504.63;5027936;28;20211;-75
2022/01/31 06:05:10;;;;;;;6.50;2.90;;;;;;;6.14;52.13;94478.53;5028595;28;20853;-76
2022/01/31 06:07:37;;;;;;;10.23;3.07;;;;;;;6.01;52.16;94454.09;5028673;28;20190;-78
2022/01/31 06:10:05;;;;;;;3.77;2.70;;;;;;;6.30;52.00;94506.91;5028484;28;20211;-76
2022/01/31 06:12:31;;;;;;;5.87;3.57;;;;;;;6.24;52.02;94489.59;5026721;28;20188;-75
2022/01/31 06:14:59;;;;;;;6.47;3.40;;;;;;;6.34;51.88;94498.13;5025352;28;20207;-74
2022/01/31 06:17:25;;;;;;;7.90;3.10;;;;;;;6.38;51.88;94501.25;5016282;28;20204;-79
2022/01/31 06:19:54;;;;;;;9.57;3.77;;;;;;;6.40;51.61;94518.00;5028040;28;20235;-77
2022/01/31 06:22:20;;;;;;;9.50;3.37;;;;;;;6.38;51.56;94502.06;5024777;28;20199;-78
2022/01/31 06:24:47;;;;;;;7.20;3.13;;;;;;;6.50;51.37;94523.19;5023138;28;20195;-78
2022/01/31 06:27:16;;;;;;;4.50;2.67;;;;;;;6.58;51.26;94520.06;5024593;28;20203;-79
2022/01/31 06:29:42;;;;;;;8.00;3.27;;;;;;;6.57;51.19;94498.94;5029093;28;20235;-80
2022/01/31 06:32:09;;;;;;;6.37;3.60;;;;;;;6.76;51.02;94509.25;5030177;28;20199;-78
2022/01/31 06:34:36;;;;;;;11.13;6.00;;;;;;;6.87;50.44;94498.28;5030765;28;20210;-78
2022/01/31 06:37:05;;;;;;;6.87;5.30;;;;;;;7.21;50.13;94498.97;5031682;28;20203;-77
2022/01/31 06:39:32;;;;;;;9.87;5.43;;;;;;;7.53;50.15;94478.56;5031521;28;20187;-75
2022/01/31 06:41:59;;;;;;;9.43;5.40;;;;;;;8.23;50.00;94494.06;5026465;28;20750;-76
2022/01/31 06:44:26;;;;;;;7.23;4.30;;;;;;;8.71;49.29;94468.72;5026450;28;20223;-75
2022/01/31 06:46:53;;;;;;;9.07;4.57;;;;;;;9.32;49.11;94480.44;5028865;28;20195;-75
2022/01/31 06:49:20;;;;;;;9.87;4.60;;;;;;;9.88;48.70;94476.31;5029150;28;20195;-77
2022/01/31 06:51:46;;;;;;;7.77;3.90;;;;;;;10.37;48.15;94461.66;5027138;28;20249;-75
2022/01/31 06:54:15;;;;;;;11.43;4.70;;;;;;;10.99;47.43;94467.75;5023503;28;20208;-78
2022/01/31 06:56:43;;;;;;;7.70;3.87;;;;;;;11.54;46.82;94465.81;5028699;28;20613;-73
2022/01/31 06:59:10;;;;;;;7.57;3.90;;;;;;;10.66;46.06;94224.47;5026699;28;20192;-77
2022/01/31 07:01:37;;;;;;;8.03;3.53;;;;;;;12.62;45.56;94447.50;5029341;28;20200;-76
2022/01/31 07:04:04;;;;;;;10.40;3.53;;;;;;;13.19;44.79;94461.22;5028749;28;20218;-78
2022/01/31 07:06:30;;;;;;;9.33;3.80;;;;;;;13.73;44.23;94453.03;5028840;28;20180;-71
2022/01/31 07:08:59;;;;;;;9.40;3.03;;;;;;;14.23;43.48;94450.22;5026427;28;20192;-72
2022/01/31 07:11:31;;;;;;;7.40;3.20;;;;;;;14.61;42.96;94447.84;5027378;28;20202;-78
2022/01/31 07:14:04;;;;;;;9.30;3.50;;;;;;;15.03;42.02;94450.03;5025261;28;20203;-77
2022/01/31 07:16:31;;;;;;;7.87;3.10;;;;;;;15.51;40.98;94466.09;5022438;28;20192;-78
2022/01/31 07:19:03;;;;;;;6.10;3.33;;;;;;;15.83;39.97;94438.47;5025800;28;20184;-78
2022/01/31 07:21:36;;;;;;;5.87;3.10;;;;;;;16.48;39.24;94473.09;5024001;28;20219;-76
2022/01/31 07:24:18;;;;;;;5.37;3.00;;;;;;;16.92;38.54;94474.84;5025274;28;21184;-75
2022/01/31 07:26:47;;;;;;;4.10;2.87;;;;;;;17.33;38.01;94464.72;5025162;28;20656;-75
2022/01/31 07:29:14;;;;;;;12.17;3.30;;;;;;;17.64;37.41;94450.69;5023405;28;20318;-72
2022/01/31 07:31:42;;;;;;;12.27;3.77;;;;;;;18.01;36.84;94447.81;5024700;28;20203;-73
2022/01/31 07:34:10;;;;;;;17.43;4.07;;;;;;;18.33;36.11;94435.25;5024074;28;20204;-74
2022/01/31 07:36:44;;;;;;;9.10;4.27;;;;;;;18.63;35.90;94435.78;5029796;28;20202;-76
2022/01/31 07:39:12;;;;;;;11.87;4.90;;;;;;;18.90;35.22;94428.91;5031147;28;20214;-75
2022/01/31 07:41:40;;;;;;;7.87;4.50;;;;;;;18.92;34.77;94390.66;5028054;28;20227;-75
2022/01/31 07:44:09;;;;;;;13.30;6.43;;;;;;;19.33;34.51;94410.44;5030241;28;20204;-74
2022/01/31 07:46:36;;;;;;;14.63;6.40;;;;;;;19.59;34.13;94427.00;5029969;28;20203;-77
2022/01/31 07:49:03;;;;;;;9.97;4.17;;;;;;;19.81;40.91;94425.84;5025200;28;20207;-74
2022/01/31 07:51:30;;;;;;;5.60;3.20;;;;;;;20.22;42.63;94430.78;5029118;28;20550;-75
2022/01/31 07:53:57;;;;;;;5.20;3.10;;;;;;;20.59;42.63;94427.69;5028055;28;20200;-77
2022/01/31 07:56:24;;;;;;;12.97;3.10;;;;;;;20.88;41.32;94429.75;5030027;28;20199;-73
2022/01/31 07:58:51;;;;;;;10.40;3.33;;;;;;;20.88;39.69;94400.38;5028756;28;20192;-75
2022/01/31 08:01:19;;;;;;;12.57;3.77;;;;;;;21.17;37.80;94431.00;5028331;28;20675;-73
2022/01/31 08:03:47;;;;;;;9.80;4.30;;;;;;;21.27;36.28;94433.94;5030015;28;20227;-74
2022/01/31 08:06:14;;;;;;;10.27;4.37;;;;;;;21.36;35.29;94429.31;5026294;28;20306;-72
2022/01/31 08:08:41;;;;;;;10.77;4.20;;;;;;;21.02;34.12;94366.28;5029676;28;20192;-71
2022/01/31 08:11:08;;;;;;;6.57;3.85;;;;;;;21.44;33.06;94416.06;5027967;28;20196;-71
2022/01/31 08:13:36;;;;;;;14.23;4.63;;;;;;;21.37;32.58;94420.50;5027190;28;20215;-70
2022/01/31 08:16:09;;;;;;;12.82;5.10;;;;;;;21.22;32.02;94423.38;5026326;28;20211;-72
2022/01/31 08:18:40;;;;;;;14.32;4.85;;;;;;;21.15;31.52;94420.00;5027612;28;20340;-73
2022/01/31 08:21:07;;;;;;;8.17;5.10;;;;;;;20.93;31.05;94409.13;5032329;28;20211;-71
2022/01/31 08:23:34;;;;;;;7.82;4.75;;;;;;;20.65;30.82;94412.09;5030107;28;20223;-74
2022/01/31 08:26:02;;;;;;;7.85;4.07;;;;;;;20.32;30.73;94409.56;5026926;28;20187;-71
2022/01/31 08:28:36;;;;;;;8.70;4.07;;;;;;;19.86;30.64;94397.50;5026098;28;20614;-76
2022/01/31 08:31:07;;;;;;;8.13;3.63;;;;;;;19.50;30.81;94403.88;5028682;28;20196;-73
2022/01/31 08:33:38;;;;;;;7.50;3.73;;;;;;;19.10;30.77;94397.88;5026898;28;20211;-73
2022/01/31 08:36:08;;;;;;;8.40;3.80;;;;;;;18.79;30.79;94403.59;5026261;28;20675;-72
2022/01/31 08:38:36;;;;;;;8.43;3.67;;;;;;;18.43;30.94;94402.00;5030472;28;20192;-72
2022/01/31 08:41:04;;;;;;;10.77;3.73;;;;;;;18.03;30.86;94411.38;5026744;28;20211;-72
2022/01/31 08:43:31;;;;;;;5.13;3.23;;;;;;;17.65;31.16;94414.28;5030785;28;20222;-71
2022/01/31 08:45:58;;;;;;;10.40;3.13;;;;;;;17.37;31.30;94400.53;5029475;28;20194;-69
2022/01/31 08:48:25;;;;;;;7.50;3.13;;;;;;;17.11;31.36;94401.91;5030713;28;20551;-70
2022/01/31 08:50:52;;;;;;;9.83;3.87;;;;;;;16.82;31.48;94397.66;5029046;28;20196;-70
2022/01/31 08:53:21;;;;;;;6.63;2.93;;;;;;;16.51;31.77;94393.50;5030845;28;20206;-70
2022/01/31 08:55:51;;;;;;;5.90;3.87;;;;;;;16.20;32.01;94390.38;5027986;28;20195;-70
2022/01/31 08:58:18;;;;;;;8.20;3.43;;;;;;;15.95;32.34;94398.38;5030481;28;20693;-71
2022/01/31 09:00:49;;;;;;;6.53;3.70;;;;;;;15.70;32.20;94404.75;5027180;28;20196;-71
2022/01/31 09:03:34;;;;;;;3.13;2.63;;;;;;;15.44;32.35;94398.19;5030655;28;20223;-70
2022/01/31 09:06:01;;;;;;;8.27;3.27;;;;;;;15.23;32.54;94395.47;5027274;28;20568;-69
2022/01/31 09:08:29;;;;;;;7.93;3.67;;;;;;;15.03;32.76;94382.28;5024802;28;20196;-70
2022/01/31 09:10:56;;;;;;;7.40;3.50;;;;;;;14.80;32.92;94375.31;5027245;28;20192;-71
2022/01/31 09:13:23;;;;;;;6.10;3.07;;;;;;;14.69;33.14;94382.66;5030255;28;20192;-72
2022/01/31 09:15:50;;;;;;;8.13;3.55;;;;;;;14.54;33.02;94378.22;5023507;28;20452;-74
2022/01/31 09:18:17;;;;;;;11.73;4.07;;;;;;;14.47;33.16;94373.91;5028748;28;20203;-72
2022/01/31 09:20:44;;;;;;;8.60;3.27;;;;;;;14.37;33.44;94373.31;5028923;28;20191;-73
2022/01/31 09:23:12;;;;;;;9.07;3.50;;;;;;;14.25;33.46;94371.13;5029678;28;20706;-76
2022/01/31 09:25:45;;;;;;;12.87;3.40;;;;;;;14.02;33.56;94347.09;5028690;28;20912;-74
2022/01/31 09:28:12;;;;;;;8.10;3.27;;;;;;;14.06;33.61;94363.81;5026308;28;20228;-76
2022/01/31 09:30:40;;;;;;;8.13;3.43;;;;;;;13.99;33.93;94358.53;5028595;28;20196;-74
2022/01/31 09:33:07;;;;;;;8.77;3.37;;;;;;;13.92;34.05;94365.31;5027897;28;20200;-71
2022/01/31 09:35:34;;;;;;;7.47;3.47;;;;;;;13.83;34.16;94360.38;5027171;28;20192;-73
2022/01/31 09:38:01;;;;;;;6.63;3.70;;;;;;;13.75;34.09;94354.28;5025751;28;20253;-76
2022/01/31 09:40:28;;;;;;;6.50;3.57;;;;;;;13.74;34.19;94342.41;5028442;28;20203;-78
2022/01/31 09:43:13;;;;;;;8.30;3.30;;;;;;;13.75;34.16;94341.41;5027868;28;20187;-74
2022/01/31 09:45:58;;;;;;;12.77;3.70;;;;;;;13.74;34.07;94318.47;5028054;28;20196;-74
2022/01/31 09:48:35;;;;;;;4.33;3.07;;;;;;;13.35;34.06;94254.22;5028625;28;20675;-77
2022/01/31 09:51:05;;;;;;;8.80;3.70;;;;;;;13.72;34.18;94316.03;5025743;28;20568;-73
2022/01/31 09:53:34;;;;;;;8.33;3.60;;;;;;;13.80;34.03;94310.88;5027824;28;20223;-76
2022/01/31 09:56:02;;;;;;;10.37;3.43;;;;;;;13.92;34.07;94302.81;5020870;28;20651;-76
2022/01/31 09:58:31;;;;;;;7.10;3.40;;;;;;;13.99;34.09;94293.47;5022522;28;20200;-75
2022/01/31 10:01:10;;;;;;;8.93;3.03;;;;;;;14.01;33.91;94307.75;5025545;28;20192;-76
2022/01/31 10:03:48;;;;;;;7.07;3.23;;;;;;;14.02;33.94;94301.63;5026279;28;20230;-75
2022/01/31 10:06:23;;;;;;;8.87;3.47;;;;;;;13.98;34.10;94284.13;5023127;28;20638;-72
2022/01/31 10:09:01;;;;;;;7.03;2.87;;;;;;;13.92;34.18;94277.91;5022310;28;20199;-74
2022/01/31 10:11:30;;;;;;;5.00;3.10;;;;;;;13.92;34.13;94266.81;5022611;28;20206;-73
2022/01/31 10:16:55;;;;;;;4.60;2.87;;;;;;;13.90;33.88;94261.84;5025849;28;20586;-78
2022/01/31 10:19:22;;;;;;;7.27;3.23;;;;;;;13.90;34.19;94251.56;5025305;28;20279;-73
2022/01/31 10:22:02;;;;;;;6.53;3.00;;;;;;;13.90;34.34;94243.03;5025020;28;20686;-77
2022/01/31 10:24:31;;;;;;;5.93;3.17;;;;;;;13.93;34.23;94248.66;5026322;28;20215;-74
2022/01/31 10:26:58;;;;;;;9.13;3.47;;;;;;;13.91;34.34;94232.59;5028006;28;20572;-71
2022/01/31 10:29:28;;;;;;;4.73;3.00;;;;;;;13.89;34.09;94223.44;5027643;28;20235;-74
2022/01/31 10:32:02;;;;;;;5.77;3.30;;;;;;;13.85;34.13;94215.28;5027173;28;20663;-81
2022/01/31 10:34:30;;;;;;;5.03;2.77;;;;;;;13.82;34.03;94215.63;5029124;28;20195;-75
2022/01/31 10:37:02;;;;;;;3.03;2.43;;;;;;;13.79;34.00;94211.63;5028362;28;20238;-73
2022/01/31 10:53:57;;;;;;;6.23;3.70;;;;;;;13.74;33.75;94156.56;4985882;28;20200;-72
2022/01/31 10:56:25;;;;;;;4.20;2.90;;;;;;;13.71;33.85;94154.34;4977074;28;20208;-75
2022/01/31 10:58:58;;;;;;;5.87;2.57;;;;;;;13.70;33.88;94145.03;4976659;28;20193;-72
2022/01/31 11:01:30;;;;;;;4.90;2.73;;;;;;;13.69;33.84;94138.31;4983845;28;20811;-73
2022/01/31 11:04:03;;;;;;;4.60;2.87;;;;;;;13.68;33.71;94132.34;4986704;28;20259;-76
2022/01/31 11:06:30;;;;;;;5.10;2.60;;;;;;;13.66;34.00;94126.59;4982920;28;20216;-79
2022/01/31 11:09:02;;;;;;;5.73;2.40;;;;;;;13.67;33.87;94124.81;4992218;28;20205;-73
2022/01/31 11:11:29;;;;;;;4.83;2.70;;;;;;;13.66;33.85;94118.06;4993957;28;20196;-77
2022/01/31 11:13:57;;;;;;;5.30;2.77;;;;;;;13.62;33.70;94127.88;4991422;28;20196;-78
2022/01/31 11:16:26;;;;;;;5.73;2.60;;;;;;;13.63;33.71;94126.13;4990787;28;20185;-73
2022/01/31 11:18:55;;;;;;;5.63;2.90;;;;;;;13.62;33.61;94121.97;4982307;28;20209;-72
2022/01/31 11:21:27;;;;;;;3.93;2.60;;;;;;;13.61;33.75;94128.88;4979052;28;20203;-80
2022/01/31 11:24:00;;;;;;;5.23;2.83;;;;;;;13.60;33.60;94117.00;4986102;28;20209;-77
2022/01/31 11:26:35;;;;;;;6.70;3.30;;;;;;;13.55;33.64;94116.69;5031771;28;20215;-78
2022/01/31 11:29:03;;;;;;;7.33;2.73;;;;;;;13.56;33.41;94108.03;5031152;28;20300;-78
2022/01/31 11:31:32;;;;;;;4.07;2.53;;;;;;;13.53;33.48;94104.03;5030544;28;20206;-79
2022/01/31 11:33:59;;;;;;;8.70;3.00;;;;;;;13.50;33.33;94094.06;5030218;28;20191;-79
2022/01/31 11:36:27;;;;;;;4.03;2.30;;;;;;;13.47;33.41;94088.47;5030057;28;20558;-79
2022/01/31 11:38:54;;;;;;;7.07;2.47;;;;;;;13.44;33.44;94088.84;5031167;28;20196;-76
2022/01/31 11:41:21;;;;;;;4.63;2.60;;;;;;;13.37;33.41;94075.06;5027872;28;20222;-75
2022/01/31 11:43:56;;;;;;;7.80;2.77;;;;;;;13.35;33.39;94075.25;5029961;28;20187;-76
2022/01/31 11:46:25;;;;;;;9.67;2.73;;;;;;;13.28;33.51;94066.59;5030251;28;20199;-74
2022/01/31 11:48:53;;;;;;;3.13;2.30;;;;;;;13.28;33.42;94066.59;5030137;28;20227;-79
2022/01/31 11:51:21;;;;;;;4.87;2.13;;;;;;;13.23;33.47;94059.41;5032770;28;20244;-78
2022/01/31 11:53:48;;;;;;;5.90;2.63;;;;;;;13.18;33.50;94056.53;5036917;28;20192;-79
2022/01/31 11:56:18;;;;;;;8.67;2.47;;;;;;;13.12;33.50;94041.00;5031418;28;20250;-77
2022/01/31 11:58:47;;;;;;;6.40;3.10;;;;;;;13.05;33.70;94033.19;5028301;28;20264;-75